Time;durP1;ratioP1;P1;durP2;ratioP2;P2;SDS_P1;SDS_P2;PMS_P1;PMS_P2;Temp;Humidity;BMP_temperature;BMP_pressure;BME280_temperature;BME280_humidity;BME280_pressure;Samples;Min_cycle;Max_cycle;Signal;HPM_P1;HPM_P2
2023/10/30 00:00:07;;;;;;;3.27;2.90;;;13.60;99.90;;;;;;5034195;28;20220;-91
2023/10/30 00:02:34;;;;;;;3.40;3.10;;;13.70;99.90;;;;;;5050577;28;20946;-93
2023/10/30 00:05:00;;;;;;;3.65;3.10;;;14.10;99.90;;;;;;5040281;28;20193;-92
2023/10/30 00:07:27;;;;;;;3.10;2.80;;;13.80;99.90;;;;;;5040462;28;20190;-93
2023/10/30 00:09:53;;;;;;;3.65;3.35;;;13.70;99.90;;;;;;5040128;28;20265;-93
2023/10/30 00:12:18;;;;;;;3.77;3.10;;;14.00;99.90;;;;;;5071614;28;20206;-93
2023/10/30 00:14:44;;;;;;;3.20;2.90;;;14.00;99.90;;;;;;5070875;28;20175;-93
2023/10/30 00:17:09;;;;;;;3.87;2.57;;;14.10;99.90;;;;;;5039889;28;20194;-93
2023/10/30 00:19:36;;;;;;;2.87;2.53;;;13.90;99.90;;;;;;5041890;28;20199;-91
2023/10/30 00:22:01;;;;;;;2.85;2.30;;;14.20;99.90;;;;;;5039125;28;20829;-93
2023/10/30 00:24:29;;;;;;;3.50;2.70;;;14.30;99.90;;;;;;5039029;28;20221;-93
2023/10/30 00:26:55;;;;;;;2.30;2.10;;;13.70;99.90;;;;;;5053067;28;20228;-91
2023/10/30 00:29:21;;;;;;;2.30;2.10;;;13.60;99.90;;;;;;5036114;28;20178;-91
2023/10/30 00:31:47;;;;;;;2.27;2.13;;;14.30;99.90;;;;;;5039357;28;20187;-93
2023/10/30 00:34:12;;;;;;;3.00;2.75;;;14.00;99.90;;;;;;5037422;28;20222;-93
2023/10/30 00:36:38;;;;;;;2.73;2.40;;;13.80;99.90;;;;;;5051946;28;20182;-91
2023/10/30 00:39:04;;;;;;;2.67;2.47;;;13.90;99.90;;;;;;5051815;28;20285;-90
2023/10/30 00:41:31;;;;;;;2.70;2.30;;;13.90;99.90;;;;;;5041891;28;20183;-91
2023/10/30 00:43:56;;;;;;;2.80;2.30;;;13.60;99.90;;;;;;5052152;28;20757;-91
2023/10/30 00:46:22;;;;;;;2.77;2.57;;;13.90;99.90;;;;;;5053077;28;20229;-91
2023/10/30 00:48:48;;;;;;;2.92;2.72;;;13.90;99.90;;;;;;5053880;28;20640;-91
2023/10/30 00:51:14;;;;;;;2.50;2.30;;;;;;;;;;5073172;28;20193;-92
2023/10/30 00:53:39;;;;;;;2.47;2.27;;;14.00;99.90;;;;;;5068156;28;20595;-91
2023/10/30 00:56:05;;;;;;;3.27;2.40;;;13.80;99.90;;;;;;5034668;28;20453;-93
2023/10/30 00:58:31;;;;;;;3.43;2.30;;;13.80;99.90;;;;;;5037373;28;20197;-91
2023/10/30 01:00:57;;;;;;;3.10;2.00;;;13.90;99.90;;;;;;5055552;28;20185;-93
2023/10/30 01:03:23;;;;;;;2.33;2.13;;;14.30;99.90;;;;;;5039698;28;20495;-91
2023/10/30 01:05:58;;;;;;;2.42;2.22;;;14.00;99.90;;;;;;5039270;28;20236;-93
2023/10/30 01:08:25;;;;;;;1.80;1.70;;;14.30;99.90;;;;;;5069834;28;20213;-92
2023/10/30 01:10:52;;;;;;;2.45;2.17;;;14.20;99.90;;;;;;5042839;28;20241;-91
2023/10/30 01:13:18;;;;;;;1.92;1.70;;;14.10;99.90;;;;;;5053493;28;20368;-93
2023/10/30 01:15:43;;;;;;;2.50;2.30;;;13.90;99.90;;;;;;5065444;28;20171;-93
2023/10/30 01:18:09;;;;;;;2.60;2.40;;;14.50;99.90;;;;;;5043700;28;20796;-93
2023/10/30 01:20:38;;;;;;;2.43;2.23;;;14.20;99.90;;;;;;5054230;28;20265;-92
2023/10/30 01:23:04;;;;;;;2.03;1.92;;;14.00;99.90;;;;;;5060473;28;20201;-91
2023/10/30 01:25:29;;;;;;;2.50;2.30;;;15.80;99.90;;;;;;5060626;28;20403;-92
2023/10/30 01:27:55;;;;;;;2.70;2.17;;;14.80;99.90;;;;;;5038625;28;20183;-91
2023/10/30 01:30:21;;;;;;;2.30;2.10;;;13.70;99.90;;;;;;5040399;28;20181;-91
2023/10/30 01:32:46;;;;;;;1.80;1.70;;;14.80;99.90;;;;;;5049078;28;20221;-93
2023/10/30 01:35:12;;;;;;;2.40;2.00;;;14.90;99.90;;;;;;5050401;28;20654;-93
2023/10/30 01:37:37;;;;;;;2.30;2.07;;;14.10;99.90;;;;;;5053969;28;20281;-91
2023/10/30 01:40:03;;;;;;;2.43;2.23;;;14.30;99.90;;;;;;5051688;28;20198;-91
2023/10/30 01:42:29;;;;;;;2.50;2.22;;;14.00;99.90;;;;;;5051886;28;20186;-91
2023/10/30 01:44:56;;;;;;;2.10;2.00;;;14.10;99.90;;;;;;5032950;28;20666;-91
2023/10/30 01:47:23;;;;;;;1.70;1.60;;;14.20;99.90;;;;;;5048327;28;20182;-91
2023/10/30 01:49:50;;;;;;;2.33;2.13;;;14.20;99.90;;;;;;5038560;28;20182;-91
2023/10/30 01:52:18;;;;;;;2.10;2.00;;;14.10;99.90;;;;;;5036775;28;20674;-91
2023/10/30 01:54:47;;;;;;;2.28;2.10;;;14.10;99.90;;;;;;5050018;28;20178;-91
2023/10/30 01:57:18;;;;;;;3.05;2.40;;;13.60;99.90;;;;;;5051424;28;20210;-91
2023/10/30 01:59:44;;;;;;;2.00;1.90;;;13.60;99.90;;;;;;5048058;28;20274;-91
2023/10/30 02:02:11;;;;;;;2.58;2.38;;;14.90;99.90;;;;;;5039778;28;20186;-91
2023/10/30 02:04:37;;;;;;;2.38;2.20;;;14.00;99.90;;;;;;5056840;28;20584;-91
2023/10/30 02:07:04;;;;;;;2.30;2.10;;;14.10;99.90;;;;;;5040108;28;20182;-91
2023/10/30 02:09:31;;;;;;;2.33;1.90;;;13.90;99.90;;;;;;5042860;28;20441;-91
2023/10/30 02:11:57;;;;;;;2.60;2.00;;;14.10;99.90;;;;;;5053233;28;20224;-91
2023/10/30 02:14:23;;;;;;;3.25;2.97;;;14.00;99.90;;;;;;5050773;28;20217;-91
2023/10/30 02:16:49;;;;;;;2.53;2.33;;;14.20;99.90;;;;;;5048247;28;20266;-91
2023/10/30 02:19:22;;;;;;;2.80;2.60;;;14.70;99.90;;;;;;5055440;28;20459;-91
2023/10/30 02:21:47;;;;;;;2.60;2.40;;;14.00;99.90;;;;;;5031437;28;20590;-91
2023/10/30 02:24:14;;;;;;;2.40;2.20;;;14.30;99.90;;;;;;5048501;28;20289;-91
2023/10/30 02:26:40;;;;;;;2.38;2.17;;;14.00;99.90;;;;;;5049810;28;20175;-91
2023/10/30 02:29:05;;;;;;;2.83;2.50;;;14.10;99.90;;;;;;5065808;28;20205;-91
2023/10/30 02:31:32;;;;;;;2.37;2.17;;;14.30;99.90;;;;;;5058720;28;20181;-93
2023/10/30 02:34:00;;;;;;;2.03;1.90;;;13.80;99.90;;;;;;5056260;28;20214;-91
2023/10/30 02:36:25;;;;;;;2.47;2.28;;;14.20;99.90;;;;;;5052087;28;20201;-91
2023/10/30 02:38:52;;;;;;;1.90;1.80;;;14.10;99.90;;;;;;5065322;28;20178;-92
2023/10/30 02:41:18;;;;;;;2.72;2.53;;;13.70;99.90;;;;;;5042904;28;20197;-92
2023/10/30 02:43:44;;;;;;;2.15;2.05;;;13.80;99.90;;;;;;5038705;28;20198;-92
2023/10/30 02:46:10;;;;;;;2.40;2.20;;;13.80;99.90;;;;;;5057644;28;20555;-92
2023/10/30 02:48:36;;;;;;;2.60;2.40;;;13.70;99.90;;;;;;5040876;28;20187;-92
2023/10/30 02:51:01;;;;;;;2.40;2.20;;;13.60;99.90;;;;;;5037914;28;20496;-92
2023/10/30 02:53:27;;;;;;;1.70;1.60;;;13.60;99.90;;;;;;5054300;28;20224;-92
2023/10/30 02:55:52;;;;;;;2.20;2.00;;;14.30;99.90;;;;;;5059847;28;20605;-93
2023/10/30 02:58:18;;;;;;;2.10;1.90;;;13.70;99.90;;;;;;5037341;28;20189;-92
2023/10/30 03:00:43;;;;;;;2.10;2.00;;;13.90;99.90;;;;;;5051903;28;20178;-92
2023/10/30 03:03:09;;;;;;;3.13;2.17;;;13.80;99.90;;;;;;5041600;28;20209;-93
2023/10/30 03:05:35;;;;;;;2.10;1.90;;;13.80;99.90;;;;;;5061659;28;20193;-92
2023/10/30 03:08:01;;;;;;;2.15;1.35;;;13.90;99.90;;;;;;5056555;28;20186;-92
2023/10/30 03:10:27;;;;;;;1.75;1.65;;;13.50;99.90;;;;;;5065699;28;20190;-92
2023/10/30 03:12:53;;;;;;;2.03;1.40;;;13.60;99.90;;;;;;5042696;28;20225;-92
2023/10/30 03:15:19;;;;;;;1.73;1.63;;;15.50;99.90;;;;;;5053030;28;20174;-92
2023/10/30 03:17:44;;;;;;;2.63;2.03;;;14.30;99.90;;;;;;5051554;28;20181;-92
2023/10/30 03:20:10;;;;;;;2.43;2.23;;;16.10;99.90;;;;;;5062071;28;20190;-93
2023/10/30 03:22:36;;;;;;;3.27;2.70;;;13.70;99.90;;;;;;5157374;22;20268;-92
2023/10/30 03:25:01;;;;;;;2.17;2.07;;;13.20;99.90;;;;;;5077343;28;20444;-93
2023/10/30 03:27:27;;;;;;;3.10;2.37;;;13.70;99.90;;;;;;5068983;28;20193;-92
2023/10/30 03:29:52;;;;;;;3.10;2.30;;;13.90;99.90;;;;;;5061484;28;20193;-92
2023/10/30 03:32:18;;;;;;;2.13;1.93;;;13.60;99.90;;;;;;5064346;28;20185;-92
2023/10/30 03:34:43;;;;;;;3.50;2.33;;;14.10;99.90;;;;;;5059142;28;20177;-92
2023/10/30 03:37:09;;;;;;;2.60;2.40;;;14.10;99.90;;;;;;5064014;28;20201;-92
2023/10/30 03:39:35;;;;;;;2.30;2.20;;;14.10;99.90;;;;;;5076592;28;20184;-93
2023/10/30 03:42:00;;;;;;;2.40;2.20;;;13.70;99.90;;;;;;5073810;28;20928;-93
2023/10/30 03:44:26;;;;;;;2.70;2.40;;;13.50;99.90;;;;;;5058582;28;20768;-92
2023/10/30 03:46:52;;;;;;;2.67;2.47;;;13.30;99.90;;;;;;5063758;28;20200;-93
2023/10/30 03:49:18;;;;;;;3.72;2.50;;;13.60;99.90;;;;;;5060983;28;20633;-92
2023/10/30 03:51:43;;;;;;;2.90;2.60;;;13.60;99.90;;;;;;5078759;28;20170;-92
2023/10/30 03:54:09;;;;;;;2.90;2.70;;;13.30;99.90;;;;;;5081989;28;20231;-93
2023/10/30 03:56:35;;;;;;;2.63;2.43;;;13.20;99.90;;;;;;5070077;28;20193;-92
2023/10/30 03:59:01;;;;;;;2.60;2.40;;;12.80;99.90;;;;;;5066348;28;20218;-93
2023/10/30 04:01:26;;;;;;;3.03;2.70;;;13.40;99.90;;;;;;5072379;28;20181;-93
2023/10/30 04:03:53;;;;;;;2.13;1.97;;;13.10;99.90;;;;;;5074400;28;20939;-93
2023/10/30 04:06:19;;;;;;;4.28;3.88;;;13.60;99.90;;;;;;5073113;28;20725;-92
2023/10/30 04:08:44;;;;;;;3.00;2.80;;;13.30;99.90;;;;;;5070886;28;20173;-92
2023/10/30 04:11:13;;;;;;;5.00;2.87;;;14.10;99.90;;;;;;5077368;28;20192;-93
2023/10/30 04:13:38;;;;;;;2.15;1.92;;;13.90;99.90;;;;;;5078071;28;20229;-92
2023/10/30 04:16:04;;;;;;;3.00;2.40;;;13.20;99.90;;;;;;5065998;28;20194;-91
2023/10/30 04:18:31;;;;;;;7.73;2.43;;;13.30;99.90;;;;;;5052146;28;20586;-92
2023/10/30 04:20:56;;;;;;;2.70;2.50;;;13.10;99.90;;;;;;5053961;28;20428;-92
2023/10/30 04:23:22;;;;;;;3.53;2.20;;;12.90;99.90;;;;;;5054929;28;20275;-92
2023/10/30 04:25:47;;;;;;;2.43;2.33;;;13.40;99.90;;;;;;5053991;28;20216;-92
2023/10/30 04:28:13;;;;;;;3.33;2.30;;;12.80;99.90;;;;;;5063099;28;20216;-92
2023/10/30 04:30:38;;;;;;;2.70;2.50;;;12.70;99.90;;;;;;5050774;28;20272;-92
2023/10/30 04:33:04;;;;;;;2.30;2.10;;;12.80;99.90;;;;;;5052573;28;20271;-93
2023/10/30 04:35:29;;;;;;;3.83;2.07;;;12.90;99.90;;;;;;5042674;28;20683;-92
2023/10/30 04:37:56;;;;;;;2.33;2.10;;;13.30;99.90;;;;;;5080116;28;20174;-92
2023/10/30 04:40:22;;;;;;;2.22;2.03;;;12.90;99.90;;;;;;5056966;28;20248;-93
2023/10/30 04:42:47;;;;;;;3.50;2.10;;;12.90;99.90;;;;;;5076166;28;20213;-92
2023/10/30 04:45:13;;;;;;;2.40;2.20;;;12.70;99.90;;;;;;5076156;28;20174;-93
2023/10/30 04:47:38;;;;;;;6.33;3.20;;;13.10;99.90;;;;;;5083114;28;20482;-93
2023/10/30 04:50:04;;;;;;;3.13;2.20;;;12.60;99.90;;;;;;5080818;28;20178;-93
2023/10/30 04:52:30;;;;;;;2.50;2.30;;;12.70;99.90;;;;;;5066012;28;20213;-92
2023/10/30 04:54:56;;;;;;;3.07;2.20;;;13.10;99.90;;;;;;5060046;28;20553;-92
2023/10/30 04:57:21;;;;;;;1.73;1.63;;;13.30;99.90;;;;;;5054897;28;20185;-92
2023/10/30 04:59:47;;;;;;;2.30;2.10;;;13.00;99.90;;;;;;5061195;28;20204;-92
2023/10/30 05:02:12;;;;;;;2.10;1.70;;;12.80;99.90;;;;;;5057248;28;20623;-92
2023/10/30 05:04:38;;;;;;;1.77;1.67;;;12.10;99.90;;;;;;5059529;28;20208;-92
2023/10/30 05:07:03;;;;;;;2.17;2.00;;;14.40;99.90;;;;;;5061724;28;20196;-92
2023/10/30 05:09:29;;;;;;;4.13;2.47;;;12.70;99.90;;;;;;5056889;28;20534;-92
2023/10/30 05:11:54;;;;;;;3.57;2.23;;;13.40;99.90;;;;;;5058450;28;20261;-93
2023/10/30 05:14:20;;;;;;;3.53;1.80;;;13.10;99.90;;;;;;5057137;28;20311;-92
2023/10/30 05:16:46;;;;;;;2.00;1.90;;;13.10;99.90;;;;;;5059016;28;20201;-92
2023/10/30 05:19:11;;;;;;;2.33;2.13;;;12.80;99.90;;;;;;5058172;28;20443;-92
2023/10/30 05:21:37;;;;;;;2.57;1.90;;;13.00;99.90;;;;;;5057638;28;20684;-92
2023/10/30 05:24:03;;;;;;;3.23;2.30;;;14.50;99.90;;;;;;5056714;28;20693;-92
2023/10/30 05:26:28;;;;;;;3.60;2.13;;;13.00;99.90;;;;;;5062679;28;20207;-92
2023/10/30 05:28:54;;;;;;;2.83;2.30;;;13.00;99.90;;;;;;5065948;28;20526;-91
2023/10/30 05:31:19;;;;;;;2.70;2.00;;;13.00;99.90;;;;;;5066281;28;20195;-91
2023/10/30 05:33:45;;;;;;;2.63;2.43;;;12.30;99.90;;;;;;5062311;28;20236;-92
2023/10/30 05:36:10;;;;;;;3.93;2.17;;;13.00;99.90;;;;;;5077023;28;20177;-92
2023/10/30 05:51:32;;;;;;;2.88;2.60;;;12.40;99.90;;;;;;5657112;22;20207;-91
2023/10/30 05:53:57;;;;;;;3.53;3.13;;;12.10;99.90;;;;;;5424005;22;20236;-94
2023/10/30 05:56:23;;;;;;;3.30;2.93;;;12.10;99.90;;;;;;5079353;28;20188;-84
2023/10/30 05:58:49;;;;;;;3.70;3.40;;;12.00;99.90;;;;;;5066744;28;20179;-84
2023/10/30 06:01:14;;;;;;;3.83;3.50;;;12.50;99.90;;;;;;5060031;28;20665;-84
2023/10/30 06:03:40;;;;;;;6.20;3.77;;;12.60;99.90;;;;;;5060711;28;20199;-81
2023/10/30 06:06:06;;;;;;;5.50;3.93;;;12.20;99.90;;;;;;5053013;28;20199;-82
2023/10/30 06:08:31;;;;;;;6.73;5.33;;;12.40;99.90;;;;;;5059086;28;20192;-81
2023/10/30 06:10:59;;;;;;;5.77;4.67;;;12.10;99.90;;;;;;5058571;28;20181;-82
2023/10/30 06:13:24;;;;;;;15.05;11.93;;;12.40;99.90;;;;;;5058618;28;20220;-82
2023/10/30 06:15:50;;;;;;;4.13;3.57;;;12.20;99.90;;;;;;5058354;28;20591;-82
2023/10/30 06:18:15;;;;;;;3.40;3.10;;;12.40;99.90;;;;;;5062932;28;20199;-81
2023/10/30 06:20:43;;;;;;;3.93;3.63;;;11.70;99.90;;;;;;5059525;28;20168;-83
2023/10/30 06:23:09;;;;;;;3.97;3.63;;;12.20;99.90;;;;;;5058119;28;20203;-82
2023/10/30 06:25:37;;;;;;;6.93;4.93;;;12.10;99.90;;;;;;5062366;28;20215;-82
2023/10/30 06:28:28;;;;;;;5.20;3.90;;;12.10;99.90;;;;;;5058698;28;20185;-80
2023/10/30 06:55:36;;;;;;;7.05;5.20;;;12.20;99.90;;;;;;5460455;22;20258;-92
2023/10/30 06:58:02;;;;;;;7.20;5.90;;;12.70;99.90;;;;;;5092501;28;20189;-92
2023/10/30 07:05:37;;;;;;;9.15;7.85;;;12.50;99.90;;;;;;5074624;28;20233;-92
2023/10/30 07:08:03;;;;;;;6.13;5.53;;;12.20;99.90;;;;;;5039818;28;20199;-91
2023/10/30 07:10:29;;;;;;;7.53;6.10;;;12.10;99.90;;;;;;5050787;28;21064;-91
2023/10/30 07:12:55;;;;;;;7.00;6.30;;;13.60;99.90;;;;;;5072729;28;20857;-91
2023/10/30 07:15:20;;;;;;;6.77;6.07;;;11.40;99.90;;;;;;5060858;28;20191;-94
2023/10/30 07:17:52;;;;;;;7.07;6.37;;;14.40;99.90;;;;;;5045056;28;20201;-95
2023/10/30 07:23:42;;;;;;;6.80;6.00;;;12.20;99.90;;;;;;5120784;22;20597;-92
2023/10/30 07:26:12;;;;;;;8.70;6.50;;;13.60;99.90;;;;;;5065071;28;20172;-95
2023/10/30 07:28:38;;;;;;;7.18;6.43;;;14.30;99.90;;;;;;5056137;28;20584;-91
2023/10/30 07:31:04;;;;;;;9.30;6.90;;;;;;;;;;5069427;28;20272;-92
2023/10/30 07:33:31;;;;;;;7.50;6.90;;;12.60;99.90;;;;;;5058104;28;20217;-91
2023/10/30 07:36:01;;;;;;;7.75;6.93;;;13.60;99.90;;;;;;5031840;28;20192;-91
2023/10/30 07:38:29;;;;;;;7.25;6.55;;;12.90;99.90;;;;;;5049967;28;20205;-92
2023/10/30 07:40:56;;;;;;;7.63;6.93;;;13.90;99.90;;;;;;5048798;28;20257;-91
2023/10/30 07:43:21;;;;;;;7.05;6.35;;;13.30;99.90;;;;;;5049950;28;20205;-91
2023/10/30 07:45:48;;;;;;;5.97;5.43;;;14.20;99.90;;;;;;5049050;28;21754;-91
2023/10/30 07:48:16;;;;;;;6.65;6.00;;;13.00;99.90;;;;;;5052140;28;20189;-92
2023/10/30 07:50:42;;;;;;;6.38;5.78;;;12.80;99.90;;;;;;5048318;28;20185;-92
2023/10/30 07:53:08;;;;;;;6.57;5.97;;;15.00;99.90;;;;;;5059954;28;20232;-91
2023/10/30 07:55:36;;;;;;;7.10;6.50;;;15.00;99.90;;;;;;5049940;28;20602;-91
2023/10/30 07:58:05;;;;;;;7.25;6.65;;;14.60;99.90;;;;;;5063348;28;20186;-91
2023/10/30 08:00:32;;;;;;;7.60;6.90;;;13.70;99.90;;;;;;5064772;28;20178;-92
2023/10/30 08:02:59;;;;;;;9.15;8.35;;;14.20;99.90;;;;;;5062011;28;20205;-92
2023/10/30 08:05:24;;;;;;;6.85;6.25;;;14.80;99.90;;;;;;5072162;28;20202;-90
2023/10/30 08:07:51;;;;;;;7.33;6.50;;;14.50;99.90;;;;;;5049085;28;20286;-89
2023/10/30 08:10:17;;;;;;;8.05;6.88;;;13.60;99.90;;;;;;5034498;28;20204;-91
2023/10/30 08:12:43;;;;;;;5.70;5.20;;;13.30;99.90;;;;;;5070056;28;20592;-90
2023/10/30 08:15:09;;;;;;;7.90;7.20;;;13.50;99.90;;;;;;5065307;28;20182;-91
2023/10/30 08:17:35;;;;;;;6.43;5.40;;;13.70;99.90;;;;;;5070323;28;20288;-92
2023/10/30 08:20:03;;;;;;;9.10;5.82;;;15.40;99.90;;;;;;5058689;28;20257;-93
2023/10/30 08:22:29;;;;;;;8.10;7.22;;;14.10;99.90;;;;;;5056617;28;20186;-90
2023/10/30 08:24:55;;;;;;;8.97;7.37;;;;;;;;;;5051467;28;20350;-88
2023/10/30 08:27:21;;;;;;;6.30;5.63;;;14.40;99.90;;;;;;5069434;28;20185;-90
2023/10/30 08:29:46;;;;;;;6.47;5.87;;;14.80;99.90;;;;;;5054462;28;20558;-90
2023/10/30 08:32:13;;;;;;;7.80;6.23;;;15.70;99.90;;;;;;5052587;28;20534;-90
2023/10/30 08:34:38;;;;;;;7.10;6.03;;;14.80;99.90;;;;;;5052568;28;20213;-90
2023/10/30 08:37:05;;;;;;;7.37;6.77;;;15.30;99.90;;;;;;5051420;28;20190;-91
2023/10/30 08:39:31;;;;;;;6.43;5.82;;;14.90;99.90;;;;;;5052429;28;20190;-91
2023/10/30 08:41:56;;;;;;;7.27;6.57;;;14.90;99.90;;;;;;5054295;28;20189;-90
2023/10/30 08:44:22;;;;;;;7.50;6.73;;;15.30;99.90;;;;;;5049003;28;20210;-91
2023/10/30 08:46:47;;;;;;;6.93;6.40;;;15.30;99.90;;;;;;5053271;28;20201;-89
2023/10/30 08:49:13;;;;;;;6.70;5.73;;;15.80;99.90;;;;;;5056422;28;20193;-89
2023/10/30 08:51:42;;;;;;;5.80;5.30;;;15.90;99.90;;;;;;5052016;28;20198;-89
2023/10/30 08:54:08;;;;;;;6.47;5.45;;;15.90;99.90;;;;;;5053250;28;20582;-89
2023/10/30 08:56:34;;;;;;;5.65;5.25;;;15.70;99.90;;;;;;5054521;28;20288;-90
2023/10/30 08:58:59;;;;;;;5.40;5.00;;;15.40;99.90;;;;;;5053567;28;20284;-89
2023/10/30 09:01:26;;;;;;;5.67;5.10;;;15.40;99.90;;;;;;5067274;28;20189;-89
2023/10/30 09:03:52;;;;;;;6.20;5.60;;;16.00;99.90;;;;;;5053331;28;20201;-90
2023/10/30 09:06:18;;;;;;;5.50;5.00;;;15.90;99.90;;;;;;5067896;28;20186;-90
2023/10/30 09:08:44;;;;;;;5.90;5.43;;;15.80;99.90;;;;;;5052753;28;20258;-90
2023/10/30 09:11:10;;;;;;;6.00;5.50;;;15.90;99.90;;;;;;5053690;28;20443;-90
2023/10/30 09:13:35;;;;;;;6.82;5.53;;;15.90;99.90;;;;;;5055341;28;20231;-91
2023/10/30 09:16:01;;;;;;;5.70;5.10;;;15.90;99.90;;;;;;5054007;28;20642;-92
2023/10/30 09:18:26;;;;;;;5.50;5.00;;;15.40;99.90;;;;;;5054993;28;20634;-91
2023/10/30 09:20:52;;;;;;;4.07;3.77;;;17.40;99.90;;;;;;5070238;28;20260;-90
2023/10/30 09:23:18;;;;;;;4.73;4.33;;;16.20;99.90;;;;;;5032655;28;20209;-90
2023/10/30 09:25:44;;;;;;;3.77;3.40;;;16.40;99.90;;;;;;5050715;22;20493;-89
2023/10/30 09:28:09;;;;;;;5.53;5.13;;;16.60;99.90;;;;;;5008358;28;20439;-88
2023/10/30 09:30:35;;;;;;;5.00;4.20;;;16.50;99.90;;;;;;5012116;28;20193;-88
2023/10/30 09:33:00;;;;;;;3.50;3.10;;;18.10;99.90;;;;;;5015962;28;20210;-89
2023/10/30 09:35:30;;;;;;;3.53;3.30;;;16.50;99.90;;;;;;5010634;28;20194;-91
2023/10/30 09:37:56;;;;;;;4.40;2.90;;;16.50;99.90;;;;;;5018499;28;20241;-90
2023/10/30 09:40:26;;;;;;;3.65;3.35;;;16.90;99.90;;;;;;5031362;28;20183;-91
2023/10/30 09:42:52;;;;;;;4.70;3.33;;;16.40;99.90;;;;;;5050162;28;20255;-89
2023/10/30 09:45:26;;;;;;;3.80;3.28;;;17.00;99.90;;;;;;5026247;28;20278;-89
2023/10/30 09:47:55;;;;;;;3.33;3.03;;;16.50;99.90;;;;;;5015952;28;20270;-88
2023/10/30 09:50:22;;;;;;;3.65;3.38;;;17.00;99.90;;;;;;5011559;28;20219;-89
2023/10/30 09:52:50;;;;;;;5.80;4.75;;;17.40;99.90;;;;;;5015658;28;20215;-88
2023/10/30 09:55:21;;;;;;;4.35;3.95;;;16.80;99.90;;;;;;5011894;28;20864;-88
2023/10/30 09:57:48;;;;;;;4.85;3.10;;;17.80;99.90;;;;;;5015550;28;20238;-89
2023/10/30 10:00:17;;;;;;;3.72;3.42;;;17.50;99.90;;;;;;5012727;28;20195;-89
2023/10/30 10:02:43;;;;;;;4.15;3.80;;;17.50;99.90;;;;;;5030231;28;20207;-90
2023/10/30 10:05:10;;;;;;;4.07;3.70;;;17.70;99.90;;;;;;5017830;28;20244;-92
2023/10/30 10:07:35;;;;;;;3.88;3.58;;;17.90;99.90;;;;;;5015043;28;20178;-91
2023/10/30 10:10:03;;;;;;;3.73;3.23;;;18.40;99.90;;;;;;5014683;28;20651;-90
2023/10/30 10:12:30;;;;;;;3.83;3.53;;;18.30;99.90;;;;;;5031717;28;20210;-92
2023/10/30 10:14:59;;;;;;;3.70;3.40;;;17.90;99.90;;;;;;5021328;28;20349;-90
2023/10/30 10:17:25;;;;;;;3.55;3.25;;;18.30;99.90;;;;;;5027930;28;20656;-89
2023/10/30 10:19:51;;;;;;;3.28;2.97;;;18.00;99.90;;;;;;5014534;28;20244;-89
2023/10/30 10:22:32;;;;;;;4.63;2.63;;;18.00;99.90;;;;;;5027055;28;20587;-91
2023/10/30 10:25:00;;;;;;;2.78;2.47;;;18.40;99.90;;;;;;5012140;28;20198;-91
2023/10/30 10:27:26;;;;;;;3.22;2.90;;;18.00;99.90;;;;;;5034229;28;20852;-91
2023/10/30 10:29:55;;;;;;;2.85;2.65;;;18.30;99.90;;;;;;5015840;28;20183;-88
2023/10/30 10:32:28;;;;;;;3.00;2.80;;;18.20;99.90;;;;;;5008320;28;20183;-89
2023/10/30 10:34:58;;;;;;;3.42;3.03;;;17.90;99.90;;;;;;5014742;28;20655;-88
2023/10/30 10:37:24;;;;;;;3.13;2.88;;;18.40;99.90;;;;;;5016658;28;20182;-89
2023/10/30 10:39:53;;;;;;;3.30;3.03;;;19.20;99.90;;;;;;5010853;28;20275;-88
2023/10/30 10:42:20;;;;;;;3.50;2.95;;;17.90;99.90;;;;;;5013820;28;20475;-88
2023/10/30 10:44:48;;;;;;;3.80;3.50;;;18.10;99.90;;;;;;5017587;28;20197;-91
2023/10/30 10:47:14;;;;;;;2.38;2.17;;;18.30;99.90;;;;;;5041626;28;20278;-91
2023/10/30 10:49:41;;;;;;;2.70;2.50;;;18.40;99.90;;;;;;5018282;28;20215;-93
2023/10/30 10:52:09;;;;;;;2.67;2.47;;;18.60;99.90;;;;;;5018660;28;20445;-93
2023/10/30 10:54:46;;;;;;;2.70;2.50;;;18.60;99.90;;;;;;5026249;28;20318;-90
2023/10/30 10:57:16;;;;;;;3.22;2.60;;;18.10;99.90;;;;;;5011507;28;20183;-91
2023/10/30 10:59:45;;;;;;;2.80;2.60;;;17.40;99.90;;;;;;5025543;28;20183;-87
2023/10/30 11:02:20;;;;;;;2.67;2.47;;;18.10;99.90;;;;;;5008254;28;20190;-87
2023/10/30 11:04:47;;;;;;;4.57;2.50;;;18.50;99.90;;;;;;5008390;28;20190;-87
2023/10/30 11:07:14;;;;;;;3.35;2.65;;;17.70;99.90;;;;;;5012213;28;20209;-87
2023/10/30 11:09:47;;;;;;;2.75;2.55;;;18.20;99.90;;;;;;5008254;28;20198;-87
2023/10/30 11:12:40;;;;;;;2.00;1.80;;;18.40;99.90;;;;;;5008802;28;20191;-88
2023/10/30 11:15:25;;;;;;;2.00;1.75;;;18.20;99.90;;;;;;5009056;28;20190;-87
2023/10/30 11:18:14;;;;;;;2.33;1.80;;;18.00;99.90;;;;;;5022010;28;20574;-87
2023/10/30 11:20:53;;;;;;;2.25;1.45;;;18.10;99.90;;;;;;5024584;28;20245;-87
2023/10/30 11:23:47;;;;;;;1.70;1.58;;;18.00;99.90;;;;;;5024267;28;20297;-86
2023/10/30 11:26:43;;;;;;;1.75;1.42;;;18.00;99.90;;;;;;5007047;28;21025;-87
2023/10/30 11:29:17;;;;;;;2.85;1.60;;;18.00;99.90;;;;;;5024261;28;20198;-88
2023/10/30 11:31:52;;;;;;;1.80;1.65;;;18.30;99.90;;;;;;5025455;28;20553;-88
2023/10/30 11:34:22;;;;;;;2.40;2.03;;;18.20;99.90;;;;;;5013054;28;20214;-86
2023/10/30 11:36:47;;;;;;;1.35;1.25;;;17.90;99.90;;;;;;5009918;28;20175;-86
2023/10/30 11:39:20;;;;;;;1.50;1.30;;;17.60;99.90;;;;;;5011561;28;20268;-86
2023/10/30 11:41:53;;;;;;;1.73;1.25;;;18.70;99.90;;;;;;5023650;28;20685;-87
2023/10/30 11:44:18;;;;;;;1.67;1.42;;;17.50;99.90;;;;;;5014636;28;20207;-87
2023/10/30 11:46:48;;;;;;;2.60;1.53;;;17.70;99.90;;;;;;5032746;28;20244;-87
2023/10/30 11:49:15;;;;;;;2.15;1.48;;;18.20;99.90;;;;;;5017429;28;20454;-89
2023/10/30 11:51:44;;;;;;;3.33;1.30;;;17.90;99.90;;;;;;5018435;28;20189;-86
2023/10/30 11:54:32;;;;;;;1.17;1.08;;;17.90;99.90;;;;;;5020321;28;20225;-85
2023/10/30 11:57:00;;;;;;;2.20;1.27;;;17.10;99.90;;;;;;5022102;28;20182;-85
2023/10/30 11:59:29;;;;;;;1.30;1.20;;;17.90;99.90;;;;;;5028446;28;20179;-87
2023/10/30 12:01:58;;;;;;;1.33;1.23;;;17.40;99.90;;;;;;5017342;28;20183;-87
2023/10/30 12:04:27;;;;;;;9.40;8.40;;;17.60;99.90;;;;;;5017512;28;20603;-87
2023/10/30 12:06:54;;;;;;;1.80;1.65;;;17.70;99.90;;;;;;5012257;28;20186;-87
2023/10/30 12:09:20;;;;;;;2.40;1.42;;;17.60;99.90;;;;;;5024246;28;20634;-88
2023/10/30 12:11:46;;;;;;;1.20;1.10;;;17.60;99.90;;;;;;5021754;28;20194;-87
2023/10/30 12:14:13;;;;;;;1.30;1.20;;;17.20;99.90;;;;;;5022061;28;20218;-86
2023/10/30 12:16:45;;;;;;;1.33;1.23;;;17.70;99.90;;;;;;5020336;28;20210;-87
2023/10/30 12:19:11;;;;;;;5.63;5.05;;;17.70;99.90;;;;;;5015431;28;20194;-87
2023/10/30 12:21:36;;;;;;;1.60;1.20;;;18.40;99.90;;;;;;5012235;28;20244;-85
2023/10/30 12:24:02;;;;;;;1.83;1.70;;;17.90;99.90;;;;;;5028770;28;20238;-87
2023/10/30 12:26:28;;;;;;;3.60;3.30;;;18.10;99.90;;;;;;5028071;28;20198;-88
2023/10/30 12:28:58;;;;;;;3.80;3.13;;;18.10;99.90;;;;;;5013065;28;20523;-90
2023/10/30 12:31:26;;;;;;;3.25;2.30;;;18.50;99.90;;;;;;5018347;28;20254;-89
2023/10/30 12:34:07;;;;;;;3.53;3.33;;;18.60;99.90;;;;;;5019227;28;20198;-88
2023/10/30 12:36:47;;;;;;;2.30;1.52;;;18.30;99.90;;;;;;5036027;28;20186;-90
2023/10/30 12:39:22;;;;;;;1.20;1.10;;;18.30;99.90;;;;;;5011570;28;20199;-87
2023/10/30 12:41:57;;;;;;;2.85;1.30;;;18.60;99.70;;;;;;5013973;28;20191;-89
2023/10/30 12:44:26;;;;;;;1.88;1.35;;;18.20;99.90;;;;;;5300383;22;20225;-88
2023/10/30 12:47:18;;;;;;;5.18;2.60;;;20.90;99.90;;;;;;5028502;28;20193;-88
2023/10/30 12:50:07;;;;;;;1.90;1.27;;;20.40;99.90;;;;;;5030905;28;21058;-85
2023/10/30 13:00:13;;;;;;;2.33;1.80;;;18.40;99.90;;;;;;5070769;28;20684;-86
2023/10/30 13:02:39;;;;;;;2.40;1.73;;;17.80;99.90;;;;;;5052069;28;20265;-86
2023/10/30 13:05:06;;;;;;;1.33;1.17;;;19.90;99.90;;;;;;5036402;28;20186;-88
2023/10/30 13:07:31;;;;;;;1.70;1.30;;;17.90;99.90;;;;;;5032154;28;20654;-89
2023/10/30 13:09:57;;;;;;;1.50;1.40;;;;;;;;;;5037657;28;20181;-91
2023/10/30 13:12:23;;;;;;;1.87;1.40;;;18.20;99.40;;;;;;5052731;28;20189;-91
2023/10/30 13:14:49;;;;;;;1.33;1.13;;;;;;;;;;5037573;28;20472;-91
2023/10/30 13:17:14;;;;;;;1.55;1.27;;;18.20;99.40;;;;;;5039740;28;20468;-91
2023/10/30 13:19:40;;;;;;;1.57;1.10;;;18.40;99.40;;;;;;5037221;28;20651;-91
2023/10/30 13:22:05;;;;;;;1.90;1.47;;;17.70;99.30;;;;;;5040683;28;20192;-90
2023/10/30 13:24:31;;;;;;;3.53;2.80;;;18.10;99.70;;;;;;5041887;28;20213;-90
2023/10/30 13:26:57;;;;;;;2.40;2.20;;;18.30;99.90;;;;;;5038297;28;20549;-90
2023/10/30 13:29:22;;;;;;;1.90;1.43;;;18.60;99.90;;;;;;5042247;28;20221;-90
2023/10/30 13:31:48;;;;;;;3.00;1.70;;;18.80;99.90;;;;;;5039528;28;20205;-93
2023/10/30 13:34:14;;;;;;;2.50;2.13;;;19.10;99.90;;;;;;5041256;28;20212;-91
2023/10/30 13:36:39;;;;;;;2.30;1.58;;;21.80;99.90;;;;;;5039361;28;20185;-91
2023/10/30 13:39:05;;;;;;;3.43;1.53;;;20.30;99.90;;;;;;5034290;28;20474;-91
2023/10/30 13:41:31;;;;;;;1.73;1.63;;;18.50;99.50;;;;;;5041537;28;20250;-92